sensor_id;sensor_type;location;lat;lon;timestamp;P1;durP1;ratioP1;P2;durP2;ratioP2
7154;SDS011;3619;53.784;10.440;2023-07-20T00:00:33;1.63;;;1.53;;
7154;SDS011;3619;53.784;10.440;2023-07-20T00:03:09;1.20;;;1.20;;
7154;SDS011;3619;53.784;10.440;2023-07-20T00:05:42;1.37;;;1.37;;
7154;SDS011;3619;53.784;10.440;2023-07-20T00:08:11;1.40;;;1.40;;
7154;SDS011;3619;53.784;10.440;2023-07-20T00:10:39;1.10;;;1.10;;
7154;SDS011;3619;53.784;10.440;2023-07-20T00:13:07;1.20;;;1.20;;
7154;SDS011;3619;53.784;10.440;2023-07-20T00:15:35;1.23;;;1.23;;
7154;SDS011;3619;53.784;10.440;2023-07-20T00:18:02;1.13;;;1.13;;
7154;SDS011;3619;53.784;10.440;2023-07-20T00:20:30;1.10;;;1.10;;
7154;SDS011;3619;53.784;10.440;2023-07-20T00:22:56;1.30;;;1.30;;
7154;SDS011;3619;53.784;10.440;2023-07-20T00:25:25;1.10;;;1.10;;
7154;SDS011;3619;53.784;10.440;2023-07-20T00:27:52;1.57;;;1.43;;
7154;SDS011;3619;53.784;10.440;2023-07-20T00:30:19;1.03;;;1.03;;
7154;SDS011;3619;53.784;10.440;2023-07-20T00:32:45;1.70;;;1.60;;
7154;SDS011;3619;53.784;10.440;2023-07-20T00:35:12;1.40;;;1.40;;
7154;SDS011;3619;53.784;10.440;2023-07-20T00:37:40;1.40;;;1.40;;
7154;SDS011;3619;53.784;10.440;2023-07-20T00:40:07;1.23;;;1.23;;
7154;SDS011;3619;53.784;10.440;2023-07-20T00:42:35;1.30;;;1.30;;
7154;SDS011;3619;53.784;10.440;2023-07-20T00:45:02;2.53;;;2.43;;
7154;SDS011;3619;53.784;10.440;2023-07-20T00:47:30;1.87;;;1.77;;
7154;SDS011;3619;53.784;10.440;2023-07-20T00:49:58;1.50;;;1.50;;
7154;SDS011;3619;53.784;10.440;2023-07-20T00:52:25;1.50;;;1.40;;
7154;SDS011;3619;53.784;10.440;2023-07-20T00:54:54;1.27;;;1.27;;
7154;SDS011;3619;53.784;10.440;2023-07-20T00:57:22;1.60;;;1.50;;
7154;SDS011;3619;53.784;10.440;2023-07-20T00:59:51;1.20;;;1.20;;
7154;SDS011;3619;53.784;10.440;2023-07-20T01:02:18;1.63;;;1.53;;
7154;SDS011;3619;53.784;10.440;2023-07-20T01:04:45;1.33;;;1.33;;
7154;SDS011;3619;53.784;10.440;2023-07-20T01:07:12;1.50;;;1.50;;
7154;SDS011;3619;53.784;10.440;2023-07-20T01:09:48;1.20;;;1.20;;
7154;SDS011;3619;53.784;10.440;2023-07-20T01:12:22;1.30;;;1.30;;
7154;SDS011;3619;53.784;10.440;2023-07-20T01:14:54;1.10;;;1.10;;
7154;SDS011;3619;53.784;10.440;2023-07-20T01:17:23;1.13;;;1.13;;
7154;SDS011;3619;53.784;10.440;2023-07-20T01:19:51;1.33;;;1.33;;
7154;SDS011;3619;53.784;10.440;2023-07-20T01:22:21;0.93;;;0.93;;
7154;SDS011;3619;53.784;10.440;2023-07-20T01:25:21;2.93;;;1.47;;
7154;SDS011;3619;53.784;10.440;2023-07-20T01:28:09;1.27;;;1.27;;
7154;SDS011;3619;53.784;10.440;2023-07-20T01:30:58;1.53;;;1.43;;
7154;SDS011;3619;53.784;10.440;2023-07-20T01:33:30;1.23;;;1.13;;
7154;SDS011;3619;53.784;10.440;2023-07-20T01:36:00;1.23;;;1.23;;
7154;SDS011;3619;53.784;10.440;2023-07-20T01:38:29;1.77;;;1.67;;
7154;SDS011;3619;53.784;10.440;2023-07-20T01:40:56;1.13;;;1.13;;
7154;SDS011;3619;53.784;10.440;2023-07-20T01:43:24;1.63;;;1.53;;
7154;SDS011;3619;53.784;10.440;2023-07-20T01:45:50;1.00;;;1.00;;
7154;SDS011;3619;53.784;10.440;2023-07-20T01:48:17;1.20;;;1.20;;
7154;SDS011;3619;53.784;10.440;2023-07-20T01:50:46;1.27;;;1.27;;
7154;SDS011;3619;53.784;10.440;2023-07-20T01:53:12;1.57;;;1.10;;
7154;SDS011;3619;53.784;10.440;2023-07-20T01:55:41;1.00;;;1.00;;
7154;SDS011;3619;53.784;10.440;2023-07-20T01:58:07;1.17;;;1.17;;
7154;SDS011;3619;53.784;10.440;2023-07-20T02:00:36;1.63;;;1.53;;
7154;SDS011;3619;53.784;10.440;2023-07-20T02:03:03;1.47;;;1.47;;
7154;SDS011;3619;53.784;10.440;2023-07-20T02:05:30;1.30;;;1.30;;
7154;SDS011;3619;53.784;10.440;2023-07-20T02:07:58;1.53;;;1.43;;
7154;SDS011;3619;53.784;10.440;2023-07-20T02:10:25;1.30;;;1.17;;
7154;SDS011;3619;53.784;10.440;2023-07-20T02:12:51;1.73;;;1.43;;
7154;SDS011;3619;53.784;10.440;2023-07-20T02:15:18;1.33;;;1.30;;
7154;SDS011;3619;53.784;10.440;2023-07-20T02:17:45;1.27;;;1.27;;
7154;SDS011;3619;53.784;10.440;2023-07-20T02:20:12;1.33;;;1.13;;
7154;SDS011;3619;53.784;10.440;2023-07-20T02:22:39;1.30;;;1.30;;
7154;SDS011;3619;53.784;10.440;2023-07-20T02:25:08;1.07;;;1.07;;
7154;SDS011;3619;53.784;10.440;2023-07-20T02:27:35;1.83;;;1.73;;
7154;SDS011;3619;53.784;10.440;2023-07-20T02:30:04;1.97;;;1.87;;
7154;SDS011;3619;53.784;10.440;2023-07-20T02:32:31;2.00;;;1.90;;
7154;SDS011;3619;53.784;10.440;2023-07-20T02:35:00;0.90;;;0.90;;
7154;SDS011;3619;53.784;10.440;2023-07-20T02:37:28;1.23;;;1.23;;
7154;SDS011;3619;53.784;10.440;2023-07-20T02:39:56;1.13;;;1.13;;
7154;SDS011;3619;53.784;10.440;2023-07-20T02:42:24;2.03;;;1.93;;
7154;SDS011;3619;53.784;10.440;2023-07-20T02:44:51;1.40;;;1.40;;
7154;SDS011;3619;53.784;10.440;2023-07-20T02:47:17;1.27;;;1.20;;
7154;SDS011;3619;53.784;10.440;2023-07-20T02:49:44;1.50;;;1.50;;
7154;SDS011;3619;53.784;10.440;2023-07-20T02:52:11;1.20;;;1.20;;
7154;SDS011;3619;53.784;10.440;2023-07-20T02:54:37;1.77;;;1.67;;
7154;SDS011;3619;53.784;10.440;2023-07-20T02:57:05;1.43;;;1.33;;
7154;SDS011;3619;53.784;10.440;2023-07-20T02:59:33;1.93;;;1.83;;
7154;SDS011;3619;53.784;10.440;2023-07-20T03:02:00;2.00;;;1.90;;
7154;SDS011;3619;53.784;10.440;2023-07-20T03:04:27;1.83;;;1.77;;
7154;SDS011;3619;53.784;10.440;2023-07-20T03:06:54;1.80;;;1.70;;
7154;SDS011;3619;53.784;10.440;2023-07-20T03:09:20;1.50;;;1.50;;
7154;SDS011;3619;53.784;10.440;2023-07-20T03:11:49;2.50;;;1.30;;
7154;SDS011;3619;53.784;10.440;2023-07-20T03:14:16;1.20;;;1.20;;
7154;SDS011;3619;53.784;10.440;2023-07-20T03:16:44;1.77;;;1.67;;
7154;SDS011;3619;53.784;10.440;2023-07-20T03:19:11;2.03;;;1.50;;
7154;SDS011;3619;53.784;10.440;2023-07-20T03:21:38;1.10;;;1.10;;
7154;SDS011;3619;53.784;10.440;2023-07-20T03:24:06;2.23;;;2.03;;
7154;SDS011;3619;53.784;10.440;2023-07-20T03:26:33;1.50;;;1.40;;
7154;SDS011;3619;53.784;10.440;2023-07-20T03:29:00;1.67;;;1.60;;
7154;SDS011;3619;53.784;10.440;2023-07-20T03:31:27;2.00;;;1.90;;
7154;SDS011;3619;53.784;10.440;2023-07-20T03:33:55;1.30;;;1.30;;
7154;SDS011;3619;53.784;10.440;2023-07-20T03:36:22;1.83;;;1.77;;
7154;SDS011;3619;53.784;10.440;2023-07-20T03:38:49;1.27;;;1.27;;
7154;SDS011;3619;53.784;10.440;2023-07-20T03:41:16;1.63;;;1.53;;
7154;SDS011;3619;53.784;10.440;2023-07-20T03:43:45;1.13;;;1.13;;
7154;SDS011;3619;53.784;10.440;2023-07-20T03:46:11;1.40;;;1.40;;
7154;SDS011;3619;53.784;10.440;2023-07-20T03:48:38;1.30;;;1.30;;
7154;SDS011;3619;53.784;10.440;2023-07-20T03:51:06;1.20;;;1.20;;
7154;SDS011;3619;53.784;10.440;2023-07-20T03:53:33;1.43;;;1.33;;
7154;SDS011;3619;53.784;10.440;2023-07-20T03:56:00;1.90;;;1.80;;
7154;SDS011;3619;53.784;10.440;2023-07-20T03:58:27;2.47;;;1.57;;
7154;SDS011;3619;53.784;10.440;2023-07-20T04:00:55;1.83;;;1.73;;
7154;SDS011;3619;53.784;10.440;2023-07-20T04:03:23;1.93;;;1.83;;
7154;SDS011;3619;53.784;10.440;2023-07-20T04:05:52;1.77;;;1.67;;
7154;SDS011;3619;53.784;10.440;2023-07-20T04:08:21;1.43;;;1.43;;
7154;SDS011;3619;53.784;10.440;2023-07-20T04:10:49;1.80;;;1.70;;
7154;SDS011;3619;53.784;10.440;2023-07-20T04:13:15;1.80;;;1.70;;
7154;SDS011;3619;53.784;10.440;2023-07-20T04:15:42;1.20;;;1.20;;
7154;SDS011;3619;53.784;10.440;2023-07-20T04:18:09;1.60;;;1.50;;
7154;SDS011;3619;53.784;10.440;2023-07-20T04:20:36;1.77;;;1.63;;
7154;SDS011;3619;53.784;10.440;2023-07-20T04:23:03;1.93;;;1.83;;
7154;SDS011;3619;53.784;10.440;2023-07-20T04:25:31;1.20;;;1.20;;
7154;SDS011;3619;53.784;10.440;2023-07-20T04:28:03;1.60;;;1.50;;
7154;SDS011;3619;53.784;10.440;2023-07-20T04:30:33;1.30;;;1.30;;
7154;SDS011;3619;53.784;10.440;2023-07-20T04:33:01;1.97;;;1.87;;
7154;SDS011;3619;53.784;10.440;2023-07-20T04:35:50;1.40;;;1.30;;
7154;SDS011;3619;53.784;10.440;2023-07-20T04:38:18;1.53;;;1.40;;
7154;SDS011;3619;53.784;10.440;2023-07-20T04:40:48;1.70;;;1.60;;
7154;SDS011;3619;53.784;10.440;2023-07-20T04:43:16;1.50;;;1.40;;
7154;SDS011;3619;53.784;10.440;2023-07-20T04:45:44;2.50;;;2.10;;
7154;SDS011;3619;53.784;10.440;2023-07-20T04:48:12;1.20;;;1.13;;
7154;SDS011;3619;53.784;10.440;2023-07-20T04:50:41;2.03;;;1.93;;
7154;SDS011;3619;53.784;10.440;2023-07-20T04:53:08;1.23;;;1.07;;
7154;SDS011;3619;53.784;10.440;2023-07-20T04:55:35;1.50;;;1.33;;
7154;SDS011;3619;53.784;10.440;2023-07-20T04:58:04;1.13;;;1.03;;
7154;SDS011;3619;53.784;10.440;2023-07-20T05:00:32;2.87;;;1.20;;
7154;SDS011;3619;53.784;10.440;2023-07-20T05:02:59;1.10;;;1.10;;
7154;SDS011;3619;53.784;10.440;2023-07-20T05:05:26;1.10;;;1.10;;
7154;SDS011;3619;53.784;10.440;2023-07-20T05:07:53;1.40;;;1.30;;
7154;SDS011;3619;53.784;10.440;2023-07-20T05:10:19;1.10;;;1.10;;
7154;SDS011;3619;53.784;10.440;2023-07-20T05:12:46;1.20;;;1.20;;
7154;SDS011;3619;53.784;10.440;2023-07-20T05:15:14;1.60;;;1.50;;
7154;SDS011;3619;53.784;10.440;2023-07-20T05:17:41;1.17;;;1.17;;
7154;SDS011;3619;53.784;10.440;2023-07-20T05:20:09;1.63;;;1.53;;
7154;SDS011;3619;53.784;10.440;2023-07-20T05:22:37;1.63;;;1.53;;
7154;SDS011;3619;53.784;10.440;2023-07-20T05:25:05;1.40;;;1.30;;
7154;SDS011;3619;53.784;10.440;2023-07-20T05:27:33;2.13;;;2.03;;
7154;SDS011;3619;53.784;10.440;2023-07-20T05:30:01;1.70;;;1.63;;
7154;SDS011;3619;53.784;10.440;2023-07-20T05:32:29;1.47;;;1.47;;
7154;SDS011;3619;53.784;10.440;2023-07-20T05:34:58;2.40;;;2.20;;
7154;SDS011;3619;53.784;10.440;2023-07-20T05:37:25;1.50;;;1.50;;
7154;SDS011;3619;53.784;10.440;2023-07-20T05:39:52;2.17;;;2.07;;
7154;SDS011;3619;53.784;10.440;2023-07-20T05:42:19;2.33;;;2.23;;
7154;SDS011;3619;53.784;10.440;2023-07-20T05:44:46;2.50;;;2.40;;
7154;SDS011;3619;53.784;10.440;2023-07-20T05:47:14;2.23;;;2.13;;
7154;SDS011;3619;53.784;10.440;2023-07-20T05:49:42;2.70;;;2.53;;
7154;SDS011;3619;53.784;10.440;2023-07-20T05:52:09;2.63;;;2.43;;
7154;SDS011;3619;53.784;10.440;2023-07-20T05:54:36;3.63;;;3.43;;
7154;SDS011;3619;53.784;10.440;2023-07-20T05:57:04;2.80;;;2.70;;
7154;SDS011;3619;53.784;10.440;2023-07-20T05:59:31;3.20;;;3.00;;
7154;SDS011;3619;53.784;10.440;2023-07-20T06:01:58;3.47;;;3.27;;
7154;SDS011;3619;53.784;10.440;2023-07-20T06:04:24;5.00;;;4.70;;
7154;SDS011;3619;53.784;10.440;2023-07-20T06:06:53;4.00;;;3.90;;
7154;SDS011;3619;53.784;10.440;2023-07-20T06:09:19;4.07;;;3.97;;
7154;SDS011;3619;53.784;10.440;2023-07-20T06:11:46;5.23;;;5.03;;
7154;SDS011;3619;53.784;10.440;2023-07-20T06:14:13;3.83;;;3.73;;
7154;SDS011;3619;53.784;10.440;2023-07-20T06:16:41;5.00;;;4.80;;
7154;SDS011;3619;53.784;10.440;2023-07-20T06:19:07;3.90;;;3.80;;
7154;SDS011;3619;53.784;10.440;2023-07-20T06:21:36;4.50;;;4.30;;
7154;SDS011;3619;53.784;10.440;2023-07-20T06:24:04;3.50;;;3.40;;
7154;SDS011;3619;53.784;10.440;2023-07-20T06:26:36;3.60;;;3.50;;
7154;SDS011;3619;53.784;10.440;2023-07-20T06:29:12;2.77;;;2.67;;
7154;SDS011;3619;53.784;10.440;2023-07-20T06:31:39;3.10;;;3.00;;
7154;SDS011;3619;53.784;10.440;2023-07-20T06:34:05;3.53;;;3.43;;
7154;SDS011;3619;53.784;10.440;2023-07-20T06:36:32;3.43;;;3.33;;
7154;SDS011;3619;53.784;10.440;2023-07-20T06:38:59;2.60;;;2.50;;
7154;SDS011;3619;53.784;10.440;2023-07-20T06:41:27;2.57;;;2.47;;
7154;SDS011;3619;53.784;10.440;2023-07-20T06:43:53;3.00;;;2.90;;
7154;SDS011;3619;53.784;10.440;2023-07-20T06:46:23;3.30;;;3.10;;
7154;SDS011;3619;53.784;10.440;2023-07-20T06:48:50;3.07;;;2.97;;
7154;SDS011;3619;53.784;10.440;2023-07-20T06:51:17;2.33;;;2.23;;
7154;SDS011;3619;53.784;10.440;2023-07-20T06:53:44;2.60;;;2.50;;
7154;SDS011;3619;53.784;10.440;2023-07-20T06:56:11;2.17;;;2.07;;
7154;SDS011;3619;53.784;10.440;2023-07-20T06:58:39;2.20;;;2.10;;
7154;SDS011;3619;53.784;10.440;2023-07-20T07:01:05;2.53;;;2.43;;
7154;SDS011;3619;53.784;10.440;2023-07-20T07:03:33;1.70;;;1.70;;
7154;SDS011;3619;53.784;10.440;2023-07-20T07:06:02;2.10;;;2.00;;
7154;SDS011;3619;53.784;10.440;2023-07-20T07:08:29;2.50;;;2.40;;
7154;SDS011;3619;53.784;10.440;2023-07-20T07:10:56;2.00;;;1.90;;
7154;SDS011;3619;53.784;10.440;2023-07-20T07:13:23;1.80;;;1.80;;
7154;SDS011;3619;53.784;10.440;2023-07-20T07:15:52;2.80;;;2.70;;
7154;SDS011;3619;53.784;10.440;2023-07-20T07:18:19;1.83;;;1.80;;
7154;SDS011;3619;53.784;10.440;2023-07-20T07:20:50;2.30;;;1.60;;
7154;SDS011;3619;53.784;10.440;2023-07-20T07:23:21;1.53;;;1.53;;
7154;SDS011;3619;53.784;10.440;2023-07-20T07:25:47;1.70;;;1.70;;
7154;SDS011;3619;53.784;10.440;2023-07-20T07:28:15;1.40;;;1.40;;
7154;SDS011;3619;53.784;10.440;2023-07-20T07:30:41;1.67;;;1.60;;
7154;SDS011;3619;53.784;10.440;2023-07-20T07:33:09;1.50;;;1.50;;
7154;SDS011;3619;53.784;10.440;2023-07-20T07:35:37;1.73;;;1.63;;
7154;SDS011;3619;53.784;10.440;2023-07-20T07:38:04;1.40;;;1.40;;
7154;SDS011;3619;53.784;10.440;2023-07-20T07:40:31;1.17;;;1.17;;
7154;SDS011;3619;53.784;10.440;2023-07-20T07:42:58;1.97;;;1.87;;
7154;SDS011;3619;53.784;10.440;2023-07-20T07:45:27;1.37;;;1.27;;
7154;SDS011;3619;53.784;10.440;2023-07-20T07:47:53;1.30;;;1.30;;
7154;SDS011;3619;53.784;10.440;2023-07-20T07:50:22;1.20;;;1.20;;
7154;SDS011;3619;53.784;10.440;2023-07-20T07:52:48;1.13;;;1.13;;
7154;SDS011;3619;53.784;10.440;2023-07-20T07:55:15;1.20;;;1.20;;
7154;SDS011;3619;53.784;10.440;2023-07-20T07:57:45;1.80;;;1.70;;
7154;SDS011;3619;53.784;10.440;2023-07-20T08:00:13;1.37;;;1.37;;
7154;SDS011;3619;53.784;10.440;2023-07-20T08:02:41;1.10;;;1.10;;
7154;SDS011;3619;53.784;10.440;2023-07-20T08:05:08;1.20;;;1.20;;
7154;SDS011;3619;53.784;10.440;2023-07-20T08:07:36;1.10;;;1.10;;
7154;SDS011;3619;53.784;10.440;2023-07-20T08:10:03;1.17;;;1.17;;
7154;SDS011;3619;53.784;10.440;2023-07-20T08:12:31;1.27;;;1.27;;
7154;SDS011;3619;53.784;10.440;2023-07-20T08:14:58;1.00;;;1.00;;
7154;SDS011;3619;53.784;10.440;2023-07-20T08:17:25;1.40;;;1.40;;
7154;SDS011;3619;53.784;10.440;2023-07-20T08:19:51;1.30;;;1.30;;
7154;SDS011;3619;53.784;10.440;2023-07-20T08:22:18;1.30;;;1.30;;
7154;SDS011;3619;53.784;10.440;2023-07-20T08:24:46;1.27;;;1.27;;
7154;SDS011;3619;53.784;10.440;2023-07-20T08:27:14;1.57;;;1.47;;
7154;SDS011;3619;53.784;10.440;2023-07-20T08:29:41;1.40;;;1.40;;
7154;SDS011;3619;53.784;10.440;2023-07-20T08:32:08;1.77;;;1.40;;
7154;SDS011;3619;53.784;10.440;2023-07-20T08:34:35;7.13;;;3.37;;
7154;SDS011;3619;53.784;10.440;2023-07-20T08:37:02;1.13;;;1.13;;
7154;SDS011;3619;53.784;10.440;2023-07-20T08:39:29;1.10;;;1.10;;
7154;SDS011;3619;53.784;10.440;2023-07-20T08:41:57;1.00;;;1.00;;
7154;SDS011;3619;53.784;10.440;2023-07-20T08:44:29;1.17;;;1.07;;
7154;SDS011;3619;53.784;10.440;2023-07-20T08:46:58;1.00;;;1.00;;
7154;SDS011;3619;53.784;10.440;2023-07-20T08:49:27;1.00;;;1.00;;
7154;SDS011;3619;53.784;10.440;2023-07-20T08:51:55;1.00;;;1.00;;
7154;SDS011;3619;53.784;10.440;2023-07-20T08:54:22;0.77;;;0.77;;
7154;SDS011;3619;53.784;10.440;2023-07-20T08:56:50;0.87;;;0.87;;
7154;SDS011;3619;53.784;10.440;2023-07-20T08:59:19;1.20;;;1.20;;
7154;SDS011;3619;53.784;10.440;2023-07-20T09:01:46;0.90;;;0.90;;
7154;SDS011;3619;53.784;10.440;2023-07-20T09:04:14;0.97;;;0.97;;
7154;SDS011;3619;53.784;10.440;2023-07-20T09:06:41;0.87;;;0.87;;
7154;SDS011;3619;53.784;10.440;2023-07-20T09:09:08;0.67;;;0.67;;
7154;SDS011;3619;53.784;10.440;2023-07-20T09:11:36;0.80;;;0.80;;
7154;SDS011;3619;53.784;10.440;2023-07-20T09:14:03;0.80;;;0.80;;
7154;SDS011;3619;53.784;10.440;2023-07-20T09:16:32;0.80;;;0.80;;
7154;SDS011;3619;53.784;10.440;2023-07-20T09:18:59;0.83;;;0.83;;
7154;SDS011;3619;53.784;10.440;2023-07-20T09:21:28;0.93;;;0.93;;
7154;SDS011;3619;53.784;10.440;2023-07-20T09:23:56;0.70;;;0.70;;
7154;SDS011;3619;53.784;10.440;2023-07-20T09:26:23;0.70;;;0.70;;
7154;SDS011;3619;53.784;10.440;2023-07-20T09:28:51;0.80;;;0.80;;
7154;SDS011;3619;53.784;10.440;2023-07-20T09:31:19;0.80;;;0.80;;
7154;SDS011;3619;53.784;10.440;2023-07-20T09:33:49;0.80;;;0.80;;
7154;SDS011;3619;53.784;10.440;2023-07-20T09:36:21;1.00;;;1.00;;
7154;SDS011;3619;53.784;10.440;2023-07-20T09:38:48;1.33;;;0.93;;
7154;SDS011;3619;53.784;10.440;2023-07-20T09:41:15;0.93;;;0.93;;
7154;SDS011;3619;53.784;10.440;2023-07-20T09:43:45;0.80;;;0.80;;
7154;SDS011;3619;53.784;10.440;2023-07-20T09:46:12;0.73;;;0.73;;
7154;SDS011;3619;53.784;10.440;2023-07-20T09:48:38;1.10;;;1.10;;
7154;SDS011;3619;53.784;10.440;2023-07-20T09:51:07;1.03;;;1.03;;
7154;SDS011;3619;53.784;10.440;2023-07-20T09:53:34;0.73;;;0.73;;
7154;SDS011;3619;53.784;10.440;2023-07-20T09:56:02;0.80;;;0.80;;
7154;SDS011;3619;53.784;10.440;2023-07-20T09:58:29;0.80;;;0.80;;
7154;SDS011;3619;53.784;10.440;2023-07-20T10:00:59;0.80;;;0.80;;
7154;SDS011;3619;53.784;10.440;2023-07-20T10:03:30;0.80;;;0.80;;
7154;SDS011;3619;53.784;10.440;2023-07-20T10:06:00;0.80;;;0.80;;
7154;SDS011;3619;53.784;10.440;2023-07-20T10:08:33;0.90;;;0.90;;
7154;SDS011;3619;53.784;10.440;2023-07-20T10:11:05;0.70;;;0.70;;
7154;SDS011;3619;53.784;10.440;2023-07-20T10:13:36;1.00;;;1.00;;
7154;SDS011;3619;53.784;10.440;2023-07-20T10:16:07;0.97;;;0.97;;
7154;SDS011;3619;53.784;10.440;2023-07-20T10:18:38;0.87;;;0.87;;
7154;SDS011;3619;53.784;10.440;2023-07-20T10:21:10;0.73;;;0.73;;
7154;SDS011;3619;53.784;10.440;2023-07-20T10:23:39;0.70;;;0.70;;
7154;SDS011;3619;53.784;10.440;2023-07-20T10:26:07;0.77;;;0.77;;
7154;SDS011;3619;53.784;10.440;2023-07-20T10:28:36;0.70;;;0.70;;
7154;SDS011;3619;53.784;10.440;2023-07-20T10:31:04;0.80;;;0.80;;
7154;SDS011;3619;53.784;10.440;2023-07-20T10:33:33;0.80;;;0.80;;
7154;SDS011;3619;53.784;10.440;2023-07-20T10:36:01;0.90;;;0.90;;
7154;SDS011;3619;53.784;10.440;2023-07-20T10:38:41;1.67;;;0.93;;
7154;SDS011;3619;53.784;10.440;2023-07-20T10:41:18;0.80;;;0.80;;
7154;SDS011;3619;53.784;10.440;2023-07-20T10:43:46;0.73;;;0.73;;
7154;SDS011;3619;53.784;10.440;2023-07-20T10:46:13;0.80;;;0.80;;
7154;SDS011;3619;53.784;10.440;2023-07-20T10:48:59;0.63;;;0.63;;
7154;SDS011;3619;53.784;10.440;2023-07-20T10:51:27;0.80;;;0.80;;
7154;SDS011;3619;53.784;10.440;2023-07-20T10:53:57;0.80;;;0.80;;
7154;SDS011;3619;53.784;10.440;2023-07-20T10:56:25;0.80;;;0.80;;
7154;SDS011;3619;53.784;10.440;2023-07-20T10:58:57;0.70;;;0.70;;
7154;SDS011;3619;53.784;10.440;2023-07-20T11:01:29;0.83;;;0.83;;
7154;SDS011;3619;53.784;10.440;2023-07-20T11:03:57;1.00;;;1.00;;
7154;SDS011;3619;53.784;10.440;2023-07-20T11:06:30;0.90;;;0.90;;
7154;SDS011;3619;53.784;10.440;2023-07-20T11:09:11;0.80;;;0.80;;
7154;SDS011;3619;53.784;10.440;2023-07-20T11:11:41;0.70;;;0.70;;
7154;SDS011;3619;53.784;10.440;2023-07-20T11:14:10;3.70;;;1.30;;
7154;SDS011;3619;53.784;10.440;2023-07-20T11:16:48;0.80;;;0.80;;
7154;SDS011;3619;53.784;10.440;2023-07-20T11:19:20;0.90;;;0.90;;
7154;SDS011;3619;53.784;10.440;2023-07-20T11:21:49;1.30;;;1.20;;
7154;SDS011;3619;53.784;10.440;2023-07-20T11:24:19;0.90;;;0.90;;
7154;SDS011;3619;53.784;10.440;2023-07-20T11:26:47;1.07;;;1.07;;
7154;SDS011;3619;53.784;10.440;2023-07-20T11:29:16;0.80;;;0.80;;
7154;SDS011;3619;53.784;10.440;2023-07-20T11:31:45;0.77;;;0.77;;
7154;SDS011;3619;53.784;10.440;2023-07-20T11:34:14;0.60;;;0.60;;
7154;SDS011;3619;53.784;10.440;2023-07-20T11:36:44;0.70;;;0.70;;
7154;SDS011;3619;53.784;10.440;2023-07-20T11:39:12;0.87;;;0.87;;
7154;SDS011;3619;53.784;10.440;2023-07-20T11:41:46;0.60;;;0.60;;
7154;SDS011;3619;53.784;10.440;2023-07-20T11:44:15;0.67;;;0.67;;
7154;SDS011;3619;53.784;10.440;2023-07-20T11:46:46;0.63;;;0.63;;
7154;SDS011;3619;53.784;10.440;2023-07-20T11:49:13;0.70;;;0.70;;
7154;SDS011;3619;53.784;10.440;2023-07-20T11:51:41;0.77;;;0.77;;
7154;SDS011;3619;53.784;10.440;2023-07-20T11:54:10;0.60;;;0.60;;
7154;SDS011;3619;53.784;10.440;2023-07-20T11:56:41;0.80;;;0.80;;
7154;SDS011;3619;53.784;10.440;2023-07-20T11:59:11;0.70;;;0.70;;
7154;SDS011;3619;53.784;10.440;2023-07-20T12:01:40;0.80;;;0.80;;
7154;SDS011;3619;53.784;10.440;2023-07-20T12:04:07;0.80;;;0.80;;
7154;SDS011;3619;53.784;10.440;2023-07-20T12:06:34;0.80;;;0.80;;
7154;SDS011;3619;53.784;10.440;2023-07-20T12:09:01;1.00;;;1.00;;
7154;SDS011;3619;53.784;10.440;2023-07-20T12:11:31;0.90;;;0.90;;
7154;SDS011;3619;53.784;10.440;2023-07-20T12:13:59;1.10;;;1.10;;
7154;SDS011;3619;53.784;10.440;2023-07-20T12:16:28;0.60;;;0.60;;
7154;SDS011;3619;53.784;10.440;2023-07-20T12:19:01;0.80;;;0.80;;
7154;SDS011;3619;53.784;10.440;2023-07-20T12:21:31;0.90;;;0.90;;
7154;SDS011;3619;53.784;10.440;2023-07-20T12:24:02;0.80;;;0.80;;
7154;SDS011;3619;53.784;10.440;2023-07-20T12:26:30;0.77;;;0.77;;
7154;SDS011;3619;53.784;10.440;2023-07-20T12:28:57;0.90;;;0.90;;
7154;SDS011;3619;53.784;10.440;2023-07-20T12:31:24;1.20;;;1.20;;
7154;SDS011;3619;53.784;10.440;2023-07-20T12:33:54;0.70;;;0.70;;
7154;SDS011;3619;53.784;10.440;2023-07-20T12:36:21;0.80;;;0.80;;
7154;SDS011;3619;53.784;10.440;2023-07-20T12:38:48;0.80;;;0.80;;
7154;SDS011;3619;53.784;10.440;2023-07-20T12:41:15;0.90;;;0.90;;
7154;SDS011;3619;53.784;10.440;2023-07-20T12:43:42;0.90;;;0.90;;
7154;SDS011;3619;53.784;10.440;2023-07-20T12:46:10;0.90;;;0.90;;
7154;SDS011;3619;53.784;10.440;2023-07-20T12:48:39;1.00;;;1.00;;
7154;SDS011;3619;53.784;10.440;2023-07-20T12:51:09;1.47;;;1.47;;
7154;SDS011;3619;53.784;10.440;2023-07-20T12:53:37;0.70;;;0.70;;
7154;SDS011;3619;53.784;10.440;2023-07-20T12:56:04;1.00;;;1.00;;
7154;SDS011;3619;53.784;10.440;2023-07-20T12:58:32;0.77;;;0.77;;
7154;SDS011;3619;53.784;10.440;2023-07-20T13:00:59;0.90;;;0.90;;
7154;SDS011;3619;53.784;10.440;2023-07-20T13:03:26;0.90;;;0.90;;
7154;SDS011;3619;53.784;10.440;2023-07-20T13:05:53;0.90;;;0.90;;
7154;SDS011;3619;53.784;10.440;2023-07-20T13:08:35;0.77;;;0.77;;
7154;SDS011;3619;53.784;10.440;2023-07-20T13:11:06;0.90;;;0.90;;
7154;SDS011;3619;53.784;10.440;2023-07-20T13:13:32;0.80;;;0.80;;
7154;SDS011;3619;53.784;10.440;2023-07-20T13:15:59;1.13;;;1.07;;
7154;SDS011;3619;53.784;10.440;2023-07-20T13:18:26;1.00;;;1.00;;
7154;SDS011;3619;53.784;10.440;2023-07-20T13:20:53;0.90;;;0.90;;
7154;SDS011;3619;53.784;10.440;2023-07-20T13:23:20;0.70;;;0.70;;
7154;SDS011;3619;53.784;10.440;2023-07-20T13:25:48;1.00;;;1.00;;
7154;SDS011;3619;53.784;10.440;2023-07-20T13:28:15;0.87;;;0.87;;
7154;SDS011;3619;53.784;10.440;2023-07-20T13:30:43;0.70;;;0.70;;
7154;SDS011;3619;53.784;10.440;2023-07-20T13:33:11;6.07;;;1.10;;
7154;SDS011;3619;53.784;10.440;2023-07-20T13:35:38;0.80;;;0.80;;
7154;SDS011;3619;53.784;10.440;2023-07-20T13:38:04;0.80;;;0.80;;
7154;SDS011;3619;53.784;10.440;2023-07-20T13:40:31;0.70;;;0.70;;
7154;SDS011;3619;53.784;10.440;2023-07-20T13:42:59;0.80;;;0.80;;
7154;SDS011;3619;53.784;10.440;2023-07-20T13:45:26;0.70;;;0.70;;
7154;SDS011;3619;53.784;10.440;2023-07-20T13:47:53;0.70;;;0.70;;
7154;SDS011;3619;53.784;10.440;2023-07-20T13:50:20;0.67;;;0.67;;
7154;SDS011;3619;53.784;10.440;2023-07-20T13:52:47;1.17;;;1.17;;
7154;SDS011;3619;53.784;10.440;2023-07-20T13:55:13;0.60;;;0.60;;
7154;SDS011;3619;53.784;10.440;2023-07-20T13:57:40;0.70;;;0.70;;
7154;SDS011;3619;53.784;10.440;2023-07-20T14:00:09;0.70;;;0.70;;
7154;SDS011;3619;53.784;10.440;2023-07-20T14:02:38;1.63;;;1.30;;
7154;SDS011;3619;53.784;10.440;2023-07-20T14:05:05;9.00;;;1.40;;
7154;SDS011;3619;53.784;10.440;2023-07-20T14:07:33;0.70;;;0.70;;
7154;SDS011;3619;53.784;10.440;2023-07-20T14:09:59;1.10;;;1.10;;
7154;SDS011;3619;53.784;10.440;2023-07-20T14:12:26;1.13;;;1.00;;
7154;SDS011;3619;53.784;10.440;2023-07-20T14:14:53;0.80;;;0.80;;
7154;SDS011;3619;53.784;10.440;2023-07-20T14:17:21;0.80;;;0.80;;
7154;SDS011;3619;53.784;10.440;2023-07-20T14:19:48;1.00;;;1.00;;
7154;SDS011;3619;53.784;10.440;2023-07-20T14:22:16;0.93;;;0.93;;
7154;SDS011;3619;53.784;10.440;2023-07-20T14:24:43;0.70;;;0.70;;
7154;SDS011;3619;53.784;10.440;2023-07-20T14:27:10;0.70;;;0.70;;
7154;SDS011;3619;53.784;10.440;2023-07-20T14:29:37;0.90;;;0.90;;
7154;SDS011;3619;53.784;10.440;2023-07-20T14:32:04;0.77;;;0.77;;
7154;SDS011;3619;53.784;10.440;2023-07-20T14:34:33;0.80;;;0.80;;
7154;SDS011;3619;53.784;10.440;2023-07-20T14:37:02;0.90;;;0.90;;
7154;SDS011;3619;53.784;10.440;2023-07-20T14:39:29;0.90;;;0.90;;
7154;SDS011;3619;53.784;10.440;2023-07-20T14:41:56;0.90;;;0.90;;
7154;SDS011;3619;53.784;10.440;2023-07-20T14:44:24;0.83;;;0.83;;
7154;SDS011;3619;53.784;10.440;2023-07-20T14:46:51;1.87;;;1.20;;
7154;SDS011;3619;53.784;10.440;2023-07-20T14:49:17;1.00;;;1.00;;
7154;SDS011;3619;53.784;10.440;2023-07-20T14:51:46;1.00;;;1.00;;
7154;SDS011;3619;53.784;10.440;2023-07-20T14:54:12;0.90;;;0.90;;
7154;SDS011;3619;53.784;10.440;2023-07-20T14:56:39;2.40;;;1.43;;
7154;SDS011;3619;53.784;10.440;2023-07-20T14:59:14;0.80;;;0.80;;
7154;SDS011;3619;53.784;10.440;2023-07-20T15:01:42;0.90;;;0.90;;
7154;SDS011;3619;53.784;10.440;2023-07-20T15:04:10;0.77;;;0.77;;
7154;SDS011;3619;53.784;10.440;2023-07-20T15:06:37;0.90;;;0.90;;